Time;durP1;ratioP1;P1;durP2;ratioP2;P2;SDS_P1;SDS_P2;PMS_P1;PMS_P2;Temp;Humidity;BMP_temperature;BMP_pressure;BME280_temperature;BME280_humidity;BME280_pressure;Samples;Min_cycle;Max_cycle;Signal;HPM_P1;HPM_P2
2022/04/04 00:02:03;;;;;;;13.87;9.67;;;;;;;-1.95;100.00;98563.53;5053821;28;20238;-71
2022/04/04 00:04:29;;;;;;;12.80;9.43;;;;;;;-1.97;100.00;98559.22;5055226;28;20254;-71
2022/04/04 00:06:57;;;;;;;13.47;9.90;;;;;;;-2.05;100.00;98561.91;5067099;28;20691;-71
2022/04/04 00:09:23;;;;;;;14.73;9.73;;;;;;;-2.07;100.00;98560.22;5056999;28;20217;-71
2022/04/04 00:11:50;;;;;;;13.70;10.23;;;;;;;-2.06;100.00;98560.22;5057346;28;20584;-70
2022/04/04 00:14:16;;;;;;;13.00;9.60;;;;;;;-2.03;100.00;98561.91;5058368;28;20218;-71
2022/04/04 00:16:43;;;;;;;13.17;9.60;;;;;;;-2.09;100.00;98559.41;5057724;28;20216;-71
2022/04/04 00:19:11;;;;;;;13.93;10.30;;;;;;;-2.20;100.00;98562.09;5057263;28;20248;-71
2022/04/04 00:21:37;;;;;;;16.97;11.03;;;;;;;-2.15;100.00;98564.66;5051563;28;20213;-71
2022/04/04 00:24:05;;;;;;;13.80;9.13;;;;;;;-2.12;100.00;98568.06;5054679;28;20209;-71
2022/04/04 00:26:31;;;;;;;12.23;9.47;;;;;;;-2.11;100.00;98556.81;5057565;28;20212;-72
2022/04/04 00:28:58;;;;;;;15.30;10.47;;;;;;;-2.10;100.00;98553.34;5056918;28;20214;-73
2022/04/04 00:31:24;;;;;;;13.47;10.13;;;;;;;-2.11;100.00;98555.94;5057224;28;20223;-71
2022/04/04 00:33:51;;;;;;;16.60;10.73;;;;;;;-2.12;100.00;98559.41;5057278;28;20217;-70
2022/04/04 00:36:18;;;;;;;14.83;9.20;;;;;;;-2.13;100.00;98560.28;5058012;28;20226;-70
2022/04/04 00:38:45;;;;;;;15.87;10.77;;;;;;;-2.14;100.00;98562.00;5056867;28;20240;-71
2022/04/04 00:41:15;;;;;;;16.90;10.73;;;;;;;-2.17;100.00;98556.91;5056548;28;20218;-71
2022/04/04 00:43:41;;;;;;;15.23;10.23;;;;;;;-2.22;100.00;98557.81;5057097;28;20222;-72
2022/04/04 00:46:08;;;;;;;14.33;10.37;;;;;;;-2.18;100.00;98560.34;5057742;28;20218;-71
2022/04/04 00:48:35;;;;;;;16.53;11.40;;;;;;;-2.17;100.00;98566.38;5056680;28;20218;-71
2022/04/04 00:51:03;;;;;;;14.67;10.63;;;;;;;-2.18;100.00;98555.19;5054687;28;20687;-70
2022/04/04 00:53:32;;;;;;;15.77;10.53;;;;;;;-2.19;100.00;98553.47;5056627;28;20302;-73
2022/04/04 00:55:59;;;;;;;14.73;10.93;;;;;;;-2.22;100.00;98560.41;5057162;28;20216;-70
2022/04/04 00:58:29;;;;;;;16.17;10.77;;;;;;;-2.29;100.00;98561.34;5055855;28;20245;-70
2022/04/04 01:00:56;;;;;;;15.63;10.70;;;;;;;-2.26;100.00;98551.81;5055485;28;20553;-70
2022/04/04 01:03:22;;;;;;;17.30;11.20;;;;;;;-2.31;100.00;98551.03;5056877;28;20239;-71
2022/04/04 01:05:49;;;;;;;14.67;10.23;;;;;;;-2.33;100.00;98552.75;5057189;28;20214;-70
2022/04/04 01:08:16;;;;;;;17.53;10.90;;;;;;;-2.40;100.00;98550.28;5055991;28;20218;-70
2022/04/04 01:10:45;;;;;;;14.97;10.83;;;;;;;-2.37;100.00;98552.81;5056042;28;20217;-71
2022/04/04 01:13:12;;;;;;;15.90;10.87;;;;;;;-2.35;100.00;98553.66;5056586;28;20268;-70
2022/04/04 01:15:39;;;;;;;13.77;10.70;;;;;;;-2.37;100.00;98552.81;5055435;28;20218;-72
2022/04/04 01:18:06;;;;;;;14.80;10.63;;;;;;;-2.31;100.00;98555.34;5055971;28;20316;-72
2022/04/04 01:20:33;;;;;;;15.50;11.07;;;;;;;-2.41;100.00;98556.31;5054720;28;20750;-71
2022/04/04 01:22:59;;;;;;;17.73;10.93;;;;;;;-2.34;100.00;98553.66;5054194;28;20698;-70
2022/04/04 01:25:28;;;;;;;15.97;10.70;;;;;;;-2.40;100.00;98552.88;5054529;28;20584;-71
2022/04/04 01:27:55;;;;;;;17.87;11.23;;;;;;;-2.50;100.00;98552.09;5055992;28;20224;-71
2022/04/04 01:30:22;;;;;;;17.50;11.80;;;;;;;-2.48;100.00;98546.91;5055551;28;20234;-71
2022/04/04 01:32:49;;;;;;;12.87;10.13;;;;;;;-2.35;100.00;98540.72;5055576;28;20687;-71
2022/04/04 01:35:16;;;;;;;15.83;11.13;;;;;;;-2.45;100.00;98536.53;5054149;28;20248;-72
2022/04/04 01:37:43;;;;;;;15.13;10.53;;;;;;;-2.48;100.00;98528.81;5055765;28;20227;-71
2022/04/04 01:40:10;;;;;;;14.07;10.50;;;;;;;-2.54;100.00;98534.03;5055472;28;20222;-71
2022/04/04 01:42:38;;;;;;;14.50;10.70;;;;;;;-2.58;100.00;98532.38;5053680;28;20224;-71
2022/04/04 01:45:06;;;;;;;15.37;11.00;;;;;;;-2.62;100.00;98530.69;5053789;28;20675;-71
2022/04/04 01:47:33;;;;;;;14.97;10.83;;;;;;;-2.62;100.00;98526.41;5055527;28;20214;-71
2022/04/04 01:50:00;;;;;;;15.57;11.17;;;;;;;-2.66;100.00;98529.88;5055731;28;20215;-71
2022/04/04 01:52:27;;;;;;;15.20;11.07;;;;;;;-2.66;100.00;98526.41;5055720;28;20220;-71
2022/04/04 01:54:53;;;;;;;15.07;11.17;;;;;;;-2.60;100.00;98523.75;5056882;28;20213;-70
2022/04/04 01:57:20;;;;;;;16.73;12.00;;;;;;;-2.70;100.00;98519.59;5055157;28;20215;-70
2022/04/04 01:59:47;;;;;;;16.87;12.23;;;;;;;-2.67;100.00;98522.13;5055122;28;20242;-70
2022/04/04 02:02:14;;;;;;;15.97;11.60;;;;;;;-2.68;100.00;98515.25;5055229;28;20266;-70
2022/04/04 02:04:41;;;;;;;14.40;10.67;;;;;;;-2.76;100.00;98519.66;5056434;28;20221;-70
2022/04/04 02:07:07;;;;;;;16.13;11.67;;;;;;;-2.79;100.00;98517.97;5055164;28;20219;-70
2022/04/04 02:09:34;;;;;;;17.00;12.53;;;;;;;-2.82;100.00;98517.97;5053473;28;20222;-70
2022/04/04 02:12:01;;;;;;;18.90;12.43;;;;;;;-2.83;100.00;98511.09;5054981;28;20218;-70
2022/04/04 02:14:28;;;;;;;18.63;13.00;;;;;;;-2.81;100.00;98504.16;5056531;28;20222;-71
2022/04/04 02:16:55;;;;;;;17.83;12.73;;;;;;;-2.81;100.00;98509.34;5054852;28;20225;-69
2022/04/04 02:19:22;;;;;;;18.50;14.10;;;;;;;-2.81;100.00;98500.75;5055042;28;20248;-71
2022/04/04 02:21:48;;;;;;;21.47;15.03;;;;;;;-2.81;100.00;98499.00;5054576;28;20209;-71
2022/04/04 02:24:15;;;;;;;21.87;14.70;;;;;;;-2.79;100.00;98501.56;5054818;28;20219;-71
2022/04/04 02:26:41;;;;;;;19.80;14.23;;;;;;;-2.81;100.00;98498.16;5055056;28;20222;-71
2022/04/04 02:29:08;;;;;;;21.73;15.47;;;;;;;-2.83;100.00;98497.28;5054804;28;20214;-72
2022/04/04 02:31:34;;;;;;;23.00;14.93;;;;;;;-2.84;100.00;98498.16;5054530;28;20220;-71
2022/04/04 02:34:02;;;;;;;19.87;13.97;;;;;;;-2.85;100.00;98496.47;5054481;28;20224;-71
2022/04/04 02:36:29;;;;;;;19.07;12.93;;;;;;;-2.88;100.00;98494.75;5054518;28;20264;-69
2022/04/04 02:38:55;;;;;;;18.60;12.53;;;;;;;-2.85;100.00;98487.00;5054269;28;20244;-69
2022/04/04 02:41:21;;;;;;;17.80;12.67;;;;;;;-2.90;100.00;98483.59;5054403;28;20213;-70
2022/04/04 02:43:48;;;;;;;17.90;12.57;;;;;;;-2.91;100.00;98481.00;5055991;28;20214;-71
2022/04/04 02:46:15;;;;;;;18.70;13.50;;;;;;;-2.89;100.00;98489.63;5041327;28;20221;-70
2022/04/04 02:48:41;;;;;;;17.63;12.60;;;;;;;-2.89;100.00;98490.47;5054246;28;20222;-70
2022/04/04 02:51:09;;;;;;;18.43;13.17;;;;;;;-2.82;100.00;98489.53;5054455;28;20213;-70
2022/04/04 02:53:36;;;;;;;19.07;13.20;;;;;;;-2.79;100.00;98475.72;5055603;28;20226;-69
2022/04/04 02:58:46;;;;;;;18.47;13.13;;;;;;;-2.91;100.00;98468.94;5054089;28;20323;-72
2022/04/04 03:01:13;;;;;;;18.20;12.33;;;;;;;-2.97;100.00;98474.19;5052756;28;20220;-70
2022/04/04 03:03:40;;;;;;;18.10;12.53;;;;;;;-2.87;100.00;98475.78;5056017;28;20251;-69
2022/04/04 03:06:08;;;;;;;19.83;12.93;;;;;;;-2.92;100.00;98479.31;5054491;28;20218;-70
2022/04/04 03:08:36;;;;;;;17.53;12.63;;;;;;;-2.93;100.00;98470.69;5054240;28;20708;-70
2022/04/04 03:11:03;;;;;;;19.70;12.90;;;;;;;-2.91;100.00;98461.19;5054136;28;20670;-70
2022/04/04 03:13:29;;;;;;;21.57;13.67;;;;;;;-2.89;100.00;98463.78;5055675;28;20252;-70
2022/04/04 03:15:56;;;;;;;18.37;12.60;;;;;;;-2.83;100.00;98471.44;5053930;28;20216;-71
2022/04/04 03:18:22;;;;;;;21.87;13.57;;;;;;;-2.87;100.00;98468.03;5054210;28;20213;-70
2022/04/04 03:20:49;;;;;;;19.23;14.10;;;;;;;-2.93;100.00;98470.69;5054246;28;20213;-70
2022/04/04 03:23:16;;;;;;;18.57;12.73;;;;;;;-2.84;100.00;98472.31;5053964;28;20213;-70
2022/04/04 03:25:43;;;;;;;18.23;13.57;;;;;;;-2.95;100.00;98474.19;5052657;28;20612;-70
2022/04/04 03:28:10;;;;;;;16.17;12.47;;;;;;;-2.85;100.00;98471.47;5054207;28;20223;-71
2022/04/04 03:30:36;;;;;;;19.57;13.53;;;;;;;-2.85;100.00;98465.44;5054211;28;20215;-70
2022/04/04 03:33:03;;;;;;;20.53;13.00;;;;;;;-2.93;100.00;98467.25;5055462;28;20209;-71
2022/04/04 03:35:31;;;;;;;19.30;13.57;;;;;;;-2.97;100.00;98470.72;5053987;28;20225;-71
2022/04/04 03:38:00;;;;;;;18.67;13.10;;;;;;;-3.01;100.00;98459.56;5054152;28;20226;-71
2022/04/04 03:40:29;;;;;;;16.63;12.87;;;;;;;-3.04;100.00;98469.09;5053669;28;20252;-70
2022/04/04 03:42:57;;;;;;;20.90;13.83;;;;;;;-3.01;100.00;98463.91;5056742;28;20544;-70
2022/04/04 03:45:25;;;;;;;23.43;14.77;;;;;;;-3.08;100.00;98457.94;5057591;28;20215;-70
2022/04/04 03:47:52;;;;;;;23.07;14.60;;;;;;;-3.06;100.00;98455.34;5057704;28;20740;-70
2022/04/04 03:50:21;;;;;;;23.43;15.47;;;;;;;-3.05;100.00;98457.06;5057893;28;20215;-69
2022/04/04 03:52:51;;;;;;;24.80;14.67;;;;;;;-3.08;100.00;98462.22;5056553;28;20740;-71
2022/04/04 03:55:19;;;;;;;22.00;15.07;;;;;;;-3.07;100.00;98471.72;5057518;28;20299;-69
2022/04/04 03:57:48;;;;;;;23.67;15.07;;;;;;;-3.06;100.00;98466.53;5057411;28;20217;-72
2022/04/04 04:00:15;;;;;;;24.00;16.07;;;;;;;-3.01;100.00;98469.06;5057203;28;20734;-72
2022/04/04 04:02:42;;;;;;;21.97;15.27;;;;;;;-3.03;100.00;98470.81;5058909;28;20241;-70
2022/04/04 04:05:10;;;;;;;22.90;16.00;;;;;;;-3.01;100.00;98466.50;5057555;28;20591;-70
2022/04/04 04:07:36;;;;;;;21.43;15.80;;;;;;;-3.05;100.00;98469.97;5057547;28;20240;-70
2022/04/04 04:10:03;;;;;;;28.33;16.70;;;;;;;-3.06;100.00;98463.09;5057451;28;20211;-70
2022/04/04 04:12:30;;;;;;;22.13;15.27;;;;;;;-3.04;100.00;98451.00;5058728;28;20217;-70
2022/04/04 04:14:58;;;;;;;25.37;16.13;;;;;;;-3.06;100.00;98442.41;5056985;28;20220;-71
2022/04/04 04:17:26;;;;;;;24.63;15.97;;;;;;;-3.07;100.00;98449.31;5056627;28;20209;-71
2022/04/04 04:22:37;;;;;;;23.13;15.93;;;;;;;-3.12;100.00;98450.22;5049284;28;20220;-70
2022/04/04 04:25:06;;;;;;;24.70;15.33;;;;;;;-3.10;100.00;98454.53;5057134;28;20223;-71
2022/04/04 04:27:32;;;;;;;23.97;16.40;;;;;;;-3.20;100.00;98446.84;5057150;28;20224;-70
2022/04/04 04:30:00;;;;;;;25.27;16.13;;;;;;;-3.19;100.00;98454.59;5058336;28;20219;-71
2022/04/04 04:32:27;;;;;;;24.70;15.83;;;;;;;-3.26;100.00;98445.19;5043614;28;20213;-71
2022/04/04 04:34:53;;;;;;;25.90;15.87;;;;;;;-3.27;100.00;98450.38;5056691;28;20217;-71
2022/04/04 04:37:21;;;;;;;23.37;14.90;;;;;;;-3.23;100.00;98441.72;5056893;28;20210;-70
2022/04/04 04:39:48;;;;;;;23.20;15.60;;;;;;;-3.26;100.00;98440.03;5057730;28;20235;-70
2022/04/04 04:42:15;;;;;;;19.93;14.13;;;;;;;-3.22;100.00;98438.28;5056791;28;20583;-71
2022/04/04 04:44:42;;;;;;;26.00;16.63;;;;;;;-3.26;100.00;98445.19;5055257;28;20216;-70
2022/04/04 04:47:10;;;;;;;23.70;15.20;;;;;;;-3.23;100.00;98436.56;5056768;28;20684;-69
2022/04/04 04:49:37;;;;;;;21.97;15.13;;;;;;;-3.20;100.00;98439.97;5057342;28;20291;-70
2022/04/04 04:52:04;;;;;;;22.60;14.67;;;;;;;-3.23;100.00;98439.16;5056830;28;20213;-69
2022/04/04 04:54:31;;;;;;;23.07;15.27;;;;;;;-3.26;100.00;98446.91;5056363;28;20218;-69
2022/04/04 04:56:57;;;;;;;24.40;15.17;;;;;;;-3.17;100.00;98441.66;5056643;28;20624;-70
2022/04/04 04:59:24;;;;;;;22.83;15.20;;;;;;;-3.22;100.00;98443.44;5056703;28;20789;-70
2022/04/04 05:01:51;;;;;;;23.67;14.97;;;;;;;-3.13;100.00;98435.59;5056915;28;20250;-69
2022/04/04 05:04:18;;;;;;;23.43;15.33;;;;;;;-3.10;100.00;98430.38;5056139;28;20821;-69
2022/04/04 05:06:48;;;;;;;22.67;15.10;;;;;;;-3.13;100.00;98438.19;5056195;28;20214;-70
2022/04/04 05:09:15;;;;;;;21.70;14.63;;;;;;;-3.17;100.00;98431.31;5056835;28;20301;-70
2022/04/04 05:11:41;;;;;;;21.53;14.20;;;;;;;-3.15;100.00;98432.16;5055136;28;20330;-70
2022/04/04 05:14:13;;;;;;;22.53;14.50;;;;;;;-3.22;100.00;98433.97;5056276;28;20211;-70
2022/04/04 05:16:40;;;;;;;18.80;12.97;;;;;;;-3.20;100.00;98431.34;5055974;28;20217;-70
2022/04/04 05:19:06;;;;;;;20.50;14.43;;;;;;;-3.15;100.00;98427.00;5056437;28;20607;-70
2022/04/04 05:21:35;;;;;;;19.27;13.70;;;;;;;-3.18;100.00;98427.03;5054473;28;20213;-70
2022/04/04 05:24:01;;;;;;;20.97;14.47;;;;;;;-3.18;100.00;98437.38;5055875;28;20215;-69
2022/04/04 05:26:29;;;;;;;20.23;14.27;;;;;;;-3.16;100.00;98438.22;5055944;28;20695;-70
2022/04/04 05:28:57;;;;;;;22.73;13.00;;;;;;;-3.19;100.00;98433.09;5056621;28;20671;-70
2022/04/04 05:31:24;;;;;;;22.03;14.33;;;;;;;-3.12;100.00;98438.16;5056145;28;20610;-71
2022/04/04 05:33:51;;;;;;;19.07;13.27;;;;;;;-3.09;100.00;98434.69;5055604;28;20223;-71
2022/04/04 05:36:20;;;;;;;19.53;13.03;;;;;;;-3.02;100.00;98431.16;5053969;28;20222;-70
2022/04/04 05:38:50;;;;;;;22.87;13.63;;;;;;;-3.06;100.00;98424.31;5056480;28;20224;-70
2022/04/04 05:41:17;;;;;;;21.27;13.77;;;;;;;-3.02;100.00;98436.31;5042022;28;20239;-71
2022/04/04 05:43:44;;;;;;;20.07;13.67;;;;;;;-2.89;100.00;98437.91;5055724;28;20223;-71
2022/04/04 05:46:11;;;;;;;19.50;12.90;;;;;;;-2.79;100.00;98439.50;5055454;28;20232;-70
2022/04/04 05:48:37;;;;;;;24.30;14.47;;;;;;;-2.74;100.00;98437.72;5056663;28;20562;-70
2022/04/04 05:51:04;;;;;;;21.03;13.17;;;;;;;-2.63;100.00;98436.69;5055725;28;20230;-71
2022/04/04 05:53:30;;;;;;;21.10;13.60;;;;;;;-2.53;100.00;98442.59;5055254;28;20221;-71
2022/04/04 05:55:58;;;;;;;17.87;13.40;;;;;;;-2.37;100.00;98434.66;5055113;28;20216;-70
2022/04/04 05:58:25;;;;;;;22.67;14.33;;;;;;;-2.23;100.00;98431.84;5055572;28;20226;-69
2022/04/04 06:00:51;;;;;;;20.23;12.63;;;;;;;-2.13;100.00;98436.03;5055536;28;20605;-69
2022/04/04 06:03:18;;;;;;;18.13;13.80;;;;;;;-2.01;100.00;98433.25;5053661;28;20716;-71
2022/04/04 06:05:46;;;;;;;20.10;12.30;;;;;;;-1.91;100.00;98434.84;5054265;28;20215;-70
2022/04/04 06:08:12;;;;;;;19.07;12.33;;;;;;;-1.83;100.00;98428.63;5055134;28;20319;-70
2022/04/04 06:10:39;;;;;;;18.53;13.10;;;;;;;-1.67;100.00;98429.25;5055717;28;20222;-70
2022/04/04 06:13:07;;;;;;;20.37;12.70;;;;;;;-1.59;100.00;98423.03;5054745;28;20217;-70
2022/04/04 06:15:33;;;;;;;21.13;13.67;;;;;;;-1.45;100.00;98425.41;5054718;28;20218;-69
2022/04/04 06:18:00;;;;;;;18.77;12.80;;;;;;;-1.38;100.00;98429.59;5054687;28;20703;-69
2022/04/04 06:20:26;;;;;;;19.47;12.23;;;;;;;-1.24;100.00;98436.25;5056088;28;20264;-72
2022/04/04 06:22:53;;;;;;;19.00;13.13;;;;;;;-1.13;100.00;98436.06;5053515;28;20213;-70
2022/04/04 06:25:21;;;;;;;17.40;13.13;;;;;;;-1.07;100.00;98429.03;5054958;28;20234;-69
2022/04/04 06:27:49;;;;;;;19.60;12.20;;;;;;;-0.95;100.00;98423.59;5053051;28;20585;-70
2022/04/04 06:30:17;;;;;;;17.30;12.93;;;;;;;-0.80;100.00;98438.03;5053696;28;20214;-70
2022/04/04 06:32:44;;;;;;;16.83;12.37;;;;;;;-0.69;100.00;98430.88;5054665;28;20219;-70
2022/04/04 06:35:11;;;;;;;16.47;12.23;;;;;;;-0.58;100.00;98424.56;5054672;28;20220;-70
2022/04/04 06:37:37;;;;;;;18.00;12.23;;;;;;;-0.49;100.00;98434.75;5054901;28;20212;-70
2022/04/04 06:40:05;;;;;;;17.37;12.00;;;;;;;-0.40;100.00;98431.09;5056008;28;20288;-70
2022/04/04 06:42:35;;;;;;;19.90;12.70;;;;;;;-0.31;100.00;98428.34;5054564;28;20215;-70
2022/04/04 06:45:03;;;;;;;19.30;12.17;;;;;;;-0.17;100.00;98422.78;5054646;28;20661;-70
2022/04/04 06:47:31;;;;;;;18.07;12.77;;;;;;;-0.10;100.00;98418.31;5054674;28;20216;-70
2022/04/04 06:49:59;;;;;;;15.60;11.73;;;;;;;-0.01;100.00;98413.75;5055504;28;20304;-70
2022/04/04 06:52:25;;;;;;;17.47;12.30;;;;;;;0.11;100.00;98429.06;5054325;28;20213;-68
2022/04/04 06:54:53;;;;;;;18.37;12.00;;;;;;;0.15;100.00;98420.31;5052725;28;20215;-67
2022/04/04 06:57:20;;;;;;;16.00;11.57;;;;;;;0.23;100.00;98414.91;5054561;28;20220;-65
2022/04/04 06:59:47;;;;;;;15.93;11.10;;;;;;;0.33;100.00;98414.66;5055302;28;20242;-67
2022/04/04 07:02:14;;;;;;;15.57;11.37;;;;;;;0.43;100.00;98416.16;5054753;28;20245;-67
2022/04/04 07:04:42;;;;;;;14.20;10.97;;;;;;;0.46;100.00;98418.69;5054469;28;20212;-70
2022/04/04 07:07:08;;;;;;;15.73;11.10;;;;;;;0.50;100.00;98419.47;5054290;28;20295;-72
2022/04/04 07:09:35;;;;;;;15.00;10.93;;;;;;;0.69;100.00;98418.09;5052779;28;20218;-70
2022/04/04 07:12:03;;;;;;;16.37;11.00;;;;;;;0.79;100.00;98410.00;5054274;28;20226;-70
2022/04/04 07:14:30;;;;;;;15.30;11.77;;;;;;;0.97;100.00;98416.47;5054150;28;20216;-69
2022/04/04 07:16:56;;;;;;;15.87;11.87;;;;;;;1.14;100.00;98412.53;5055395;28;20227;-69
2022/04/04 07:19:24;;;;;;;15.00;11.17;;;;;;;1.34;100.00;98407.59;5059785;28;20211;-69
2022/04/04 07:21:52;;;;;;;15.57;11.43;;;;;;;1.45;100.00;98408.16;5056029;28;20210;-69
2022/04/04 07:24:18;;;;;;;14.93;11.03;;;;;;;1.55;100.00;98401.78;5058348;28;20579;-68
2022/04/04 07:26:45;;;;;;;15.97;11.43;;;;;;;1.71;100.00;98405.63;5058290;28;20219;-68
2022/04/04 07:29:11;;;;;;;14.93;10.50;;;;;;;1.82;100.00;98403.56;5059803;28;20236;-69
2022/04/04 07:31:38;;;;;;;12.40;9.57;;;;;;;1.93;100.00;98398.88;5058149;28;20216;-69
2022/04/04 07:34:04;;;;;;;15.57;9.87;;;;;;;2.02;100.00;98401.19;5058115;28;20216;-69
2022/04/04 07:36:31;;;;;;;14.90;10.57;;;;;;;2.11;100.00;98400.91;5057995;28;20212;-69
2022/04/04 07:38:59;;;;;;;13.53;10.33;;;;;;;2.15;100.00;98399.06;5059557;28;20280;-70
2022/04/04 07:41:25;;;;;;;12.47;9.20;;;;;;;2.21;100.00;98399.69;5057907;28;20236;-69
2022/04/04 07:43:53;;;;;;;12.20;9.80;;;;;;;2.26;100.00;98395.19;5057816;28;20700;-69
2022/04/04 07:46:19;;;;;;;12.90;9.60;;;;;;;2.31;100.00;98393.28;5056315;28;20237;-68
2022/04/04 07:48:46;;;;;;;12.00;9.57;;;;;;;2.47;100.00;98404.06;5058214;28;20592;-69
2022/04/04 07:51:13;;;;;;;11.57;9.30;;;;;;;2.58;100.00;98394.16;5057505;28;20220;-70
2022/04/04 07:53:39;;;;;;;12.10;9.57;;;;;;;2.71;100.00;98393.69;5057601;28;20700;-70
2022/04/04 07:56:07;;;;;;;13.20;9.93;;;;;;;2.80;100.00;98390.75;5057721;28;20219;-70
2022/04/04 07:58:33;;;;;;;13.63;9.40;;;;;;;2.92;100.00;98392.06;5059332;28;20586;-70
2022/04/04 08:01:01;;;;;;;11.53;8.93;;;;;;;3.02;100.00;98386.50;5057489;28;20247;-69
2022/04/04 08:03:27;;;;;;;10.20;8.77;;;;;;;3.14;100.00;98386.06;5057538;28;20240;-69
2022/04/04 08:05:54;;;;;;;11.67;9.00;;;;;;;3.24;100.00;98386.59;5057257;28;20212;-67
2022/04/04 08:08:21;;;;;;;10.87;8.77;;;;;;;3.37;100.00;98380.00;5058599;28;20295;-69
2022/04/04 08:10:48;;;;;;;13.37;8.43;;;;;;;3.49;98.07;98364.72;5057260;28;20208;-68
2022/04/04 08:13:16;;;;;;;10.00;8.17;;;;;;;3.69;94.65;98370.06;5055903;28;20576;-68
2022/04/04 08:15:42;;;;;;;12.87;7.33;;;;;;;3.79;92.95;98366.16;5057465;28;20239;-68
2022/04/04 08:18:09;;;;;;;11.50;7.97;;;;;;;3.88;91.95;98373.66;5058579;28;20223;-68
2022/04/04 08:20:35;;;;;;;10.73;7.67;;;;;;;4.00;88.74;98364.47;5057105;28;20258;-67
2022/04/04 08:23:02;;;;;;;9.00;7.47;;;;;;;4.11;85.62;98365.78;5055598;28;20227;-68
2022/04/04 08:25:30;;;;;;;11.57;7.70;;;;;;;4.30;83.87;98361.50;5055804;28;20216;-68
2022/04/04 08:27:57;;;;;;;9.47;6.63;;;;;;;4.47;76.93;98353.78;5056736;28;20292;-68
2022/04/04 08:30:24;;;;;;;8.27;6.60;;;;;;;4.54;72.58;98355.25;5041835;28;20217;-68
2022/04/04 08:32:51;;;;;;;7.77;6.10;;;;;;;4.74;70.80;98349.16;5055747;28;20667;-68
2022/04/04 08:35:18;;;;;;;8.23;6.23;;;;;;;4.80;65.68;98352.38;5055289;28;20836;-69
2022/04/04 08:37:46;;;;;;;7.23;6.53;;;;;;;4.75;61.76;98346.47;5056339;28;20225;-67
2022/04/04 08:40:18;;;;;;;7.60;6.47;;;;;;;4.85;67.08;98346.94;5039801;28;20244;-67
2022/04/04 08:42:44;;;;;;;8.97;7.13;;;;;;;4.86;65.70;98341.63;5053235;28;20208;-68
2022/04/04 08:45:12;;;;;;;7.03;6.33;;;;;;;4.92;64.89;98338.75;5053726;28;20255;-69
2022/04/04 08:47:41;;;;;;;7.20;6.50;;;;;;;5.03;64.48;98338.28;5056615;28;20222;-69
2022/04/04 08:50:09;;;;;;;6.93;6.33;;;;;;;4.99;58.74;98334.06;5042472;28;20213;-68
2022/04/04 08:52:38;;;;;;;7.47;6.17;;;;;;;4.78;52.96;98335.03;5055275;28;20339;-67
2022/04/04 08:55:05;;;;;;;7.03;6.33;;;;;;;4.73;54.33;98324.75;5055417;28;20223;-69
2022/04/04 08:57:32;;;;;;;7.80;6.07;;;;;;;4.58;51.85;98330.63;5053252;28;20224;-68
2022/04/04 08:59:58;;;;;;;7.97;6.17;;;;;;;4.53;54.27;98326.53;5052607;28;20224;-71
2022/04/04 09:02:25;;;;;;;7.53;6.73;;;;;;;4.61;53.90;98320.03;5056254;28;20237;-69
2022/04/04 09:04:53;;;;;;;6.40;5.53;;;;;;;4.78;54.98;98322.81;5054928;28;20213;-70
2022/04/04 09:07:21;;;;;;;6.40;5.87;;;;;;;4.79;54.85;98314.03;5059597;28;20217;-70
2022/04/04 09:09:50;;;;;;;7.80;6.47;;;;;;;4.88;56.50;98313.59;5060332;28;20217;-69
2022/04/04 09:12:19;;;;;;;7.20;6.50;;;;;;;4.90;55.14;98316.16;5057912;28;20292;-70
2022/04/04 09:14:47;;;;;;;6.47;5.87;;;;;;;4.91;50.62;98308.25;5057858;28;20257;-71
2022/04/04 09:17:16;;;;;;;6.20;5.40;;;;;;;4.92;50.85;98299.47;5057611;28;20216;-70
2022/04/04 09:19:43;;;;;;;6.10;5.57;;;;;;;4.92;48.83;98302.09;5057752;28;20216;-70
2022/04/04 09:22:13;;;;;;;6.83;6.13;;;;;;;5.00;51.31;98292.13;5054034;28;20712;-70
2022/04/04 09:24:44;;;;;;;5.97;5.37;;;;;;;5.04;49.17;98288.44;5057499;28;20209;-70
2022/04/04 09:27:11;;;;;;;6.40;4.87;;;;;;;5.16;54.18;98287.91;5060774;28;20255;-69
2022/04/04 09:29:41;;;;;;;5.00;4.50;;;;;;;5.25;53.41;98287.47;5058200;28;20252;-71
2022/04/04 09:32:11;;;;;;;5.23;4.73;;;;;;;5.34;53.88;98289.69;5055951;28;20210;-69
2022/04/04 09:34:52;;;;;;;5.23;4.73;;;;;;;5.37;51.64;98271.19;5056050;28;20268;-69
2022/04/04 09:37:21;;;;;;;5.07;4.57;;;;;;;5.50;54.60;98280.16;5054729;28;20214;-70
2022/04/04 09:39:49;;;;;;;6.00;5.37;;;;;;;5.63;53.68;98268.19;5056769;28;20223;-70
2022/04/04 09:42:16;;;;;;;5.83;5.23;;;;;;;5.68;55.17;98271.44;5056758;28;20328;-70
2022/04/04 09:44:56;;;;;;;5.17;4.67;;;;;;;5.69;52.20;98267.06;5059115;28;20270;-70
2022/04/04 09:47:23;;;;;;;5.67;5.00;;;;;;;5.74;52.90;98271.16;5053235;28;20220;-70
2022/04/04 09:49:49;;;;;;;5.68;5.18;;;;;;;5.85;52.63;98263.66;5052503;28;20913;-65
2022/04/04 09:52:16;;;;;;;5.73;5.13;;;;;;;6.03;54.92;98252.28;5053496;28;20214;-65
2022/04/04 09:54:43;;;;;;;4.90;4.50;;;;;;;6.11;55.78;98247.47;5053950;28;20636;-65
2022/04/04 09:57:12;;;;;;;6.10;5.40;;;;;;;6.17;53.23;98246.34;5052830;28;20714;-65
2022/04/04 09:59:39;;;;;;;5.70;5.10;;;;;;;6.18;54.96;98234.91;5051239;28;20214;-66
2022/04/04 10:02:14;;;;;;;6.20;5.13;;;;;;;6.07;54.08;98234.59;5089133;27;20567;-66
2022/04/04 10:04:43;;;;;;;6.03;5.40;;;;;;;6.13;56.10;98227.28;5088777;28;20218;-64
2022/04/04 10:07:12;;;;;;;6.03;5.43;;;;;;;6.17;55.15;98226.19;5074464;28;20213;-66
2022/04/04 10:09:39;;;;;;;5.77;5.13;;;;;;;6.27;56.52;98218.69;5088206;28;20213;-65
2022/04/04 10:12:07;;;;;;;6.53;5.33;;;;;;;6.28;55.21;98216.00;5088133;28;20301;-65
2022/04/04 10:14:36;;;;;;;5.93;5.33;;;;;;;6.23;50.32;98212.75;5087486;28;20217;-66
2022/04/04 10:17:04;;;;;;;6.77;5.30;;;;;;;6.32;50.31;98207.06;5076576;28;20213;-66
2022/04/04 10:19:33;;;;;;;7.50;5.93;;;;;;;6.66;56.35;98199.09;5088351;28;20218;-65
2022/04/04 10:21:59;;;;;;;6.87;6.27;;;;;;;6.78;55.22;98201.09;5087256;28;20239;-66
2022/04/04 10:24:26;;;;;;;6.13;5.10;;;;;;;6.79;52.00;98197.53;5087975;28;20221;-67
2022/04/04 10:26:53;;;;;;;6.20;5.60;;;;;;;6.91;51.54;98196.03;5086064;28;20215;-66
2022/04/04 10:29:22;;;;;;;6.33;5.57;;;;;;;6.96;49.76;98194.84;5088276;28;20214;-65
2022/04/04 10:31:50;;;;;;;6.47;5.27;;;;;;;7.07;55.13;98191.63;5088791;28;20264;-66
2022/04/04 10:34:19;;;;;;;7.87;5.37;;;;;;;6.90;51.22;98189.94;5088595;28;20215;-66
2022/04/04 10:37:01;;;;;;;6.70;6.00;;;;;;;6.77;51.13;98182.81;5088714;28;20211;-66
2022/04/04 10:39:36;;;;;;;6.27;5.67;;;;;;;6.81;54.57;98185.19;5088710;28;20218;-65
2022/04/04 10:42:04;;;;;;;5.80;5.20;;;;;;;6.78;53.41;98174.00;5084418;28;20280;-65
2022/04/04 10:44:46;;;;;;;5.60;5.10;;;;;;;6.63;54.19;98173.03;5076796;28;20246;-65
2022/04/04 10:47:20;;;;;;;6.57;5.33;;;;;;;6.54;52.95;98165.63;5088508;28;20218;-65
2022/04/04 10:49:47;;;;;;;6.13;5.30;;;;;;;6.68;53.44;98163.13;5088246;28;20353;-66
2022/04/04 10:52:18;;;;;;;5.87;5.13;;;;;;;6.62;52.47;98152.97;5086664;28;20244;-66
2022/04/04 10:54:45;;;;;;;6.70;5.20;;;;;;;6.33;52.10;98156.25;5088117;28;20248;-64
2022/04/04 10:57:16;;;;;;;5.60;5.10;;;;;;;6.48;54.99;98151.97;5087625;28;20210;-65
2022/04/04 10:59:45;;;;;;;5.77;5.23;;;;;;;6.69;54.97;98145.56;5076219;28;20229;-66
2022/04/04 11:02:14;;;;;;;7.17;5.60;;;;;;;7.05;56.72;98139.19;5072680;28;20242;-64
2022/04/04 11:07:38;;;;;;;5.77;4.97;;;;;;;7.25;51.14;98125.78;5081029;28;20289;-66
2022/04/04 11:07:38;;;;;;;5.90;5.30;;;;;;;7.28;53.93;98123.00;5087234;28;20306;-65
2022/04/04 11:10:06;;;;;;;5.93;4.87;;;;;;;7.22;51.84;98122.47;5076583;28;20229;-65
2022/04/04 11:12:55;;;;;;;6.43;5.23;;;;;;;7.22;50.49;98112.84;5079941;28;20217;-66
2022/04/04 11:15:45;;;;;;;5.67;4.40;;;;;;;7.21;49.93;98111.09;5074256;28;20257;-65
2022/04/04 11:18:13;;;;;;;5.40;4.90;;;;;;;7.29;52.36;98115.00;5064737;28;20218;-66
2022/04/04 11:20:48;;;;;;;5.00;4.50;;;;;;;7.53;53.78;98099.63;5072665;28;20239;-65
2022/04/04 11:23:17;;;;;;;5.47;4.93;;;;;;;7.49;55.12;98098.09;5074371;28;20213;-64
2022/04/04 11:25:51;;;;;;;5.03;4.53;;;;;;;7.45;51.98;98093.94;5074350;28;20251;-65
2022/04/04 11:28:18;;;;;;;5.00;4.57;;;;;;;7.54;54.80;98089.00;5074317;28;20584;-65